Latest Weather Observations for King Island Airport

IDT60801

Issued at 10:02 am EDT Sunday 1 March 2015 (issued every 30 minutes, with the page automatically refreshed every 10 minutes)

About weather observations | Map of weather stations | Latest weather observations for TAS | Other Formats
Station Details ID: 098017 Name: KING ISLAND AIRPORT Lat: -39.88 Lon: 143.88 Height: 37.0 m
Data from the previous 72 hours. | See also: Recent months at King Island Airport
Date/Time
EDT
Temp
°C
App
Temp
°C
Dew
Point
Rel
Hum
%
Delta-T
°C
Wind Press
QNH
hPa
Press
MSL
hPa
Rain
since 9 am
mm
Dir
 
Spd
km/h
Gust
km/h
Spd
kts
Gust
kts
01/09:30am 16.4 10.5 10.5 68 3.1 SW 32 41 17 22 1012.2 1012.1 0.0
01/09:00am 14.8 10.6 11.2 79 1.9 SW 24 33 13 18 1011.6 1011.5 1.0
01/08:30am 16.1 11.2 10.0 67 3.2 SW 26 37 14 20 1010.9 1010.8 0.8
01/08:00am 15.4 10.9 10.2 71 2.7 SW 24 33 13 18 1010.5 1010.4 0.8
01/07:30am 15.1 11.1 10.3 73 2.5 SW 22 30 12 16 1009.9 1009.9 0.8
01/07:00am 14.7 10.2 10.1 74 2.4 SW 24 35 13 19 1009.3 1009.3 0.8
01/06:30am 14.6 11.1 10.2 75 2.3 SSW 19 28 10 15 1008.7 1008.7 0.8
01/06:00am 14.8 10.4 10.4 75 2.3 SW 24 33 13 18 1008.1 1008.1 0.8
01/05:30am 14.7 9.8 10.1 74 2.4 SW 26 32 14 17 1007.7 1007.7 0.8
01/05:00am 14.8 10.3 10.0 73 2.5 SW 24 33 13 18 1007.4 1007.4 0.8
01/04:30am 14.9 9.3 10.1 73 2.5 SW 30 37 16 20 1007.1 1007.1 0.8
01/04:00am 15.1 9.9 10.1 72 2.6 SW 28 37 15 20 1007.0 1007.0 0.8
01/03:30am 15.0 10.4 9.6 70 2.8 SW 24 33 13 18 1006.7 1006.7 0.8
01/03:00am 15.0 10.7 10.8 76 2.2 SW 24 35 13 19 1006.7 1006.7 0.8
01/02:30am 15.1 10.8 12.1 82 1.6 SW 26 33 14 18 1006.7 1006.7 0.8
01/02:00am 15.5 10.6 11.3 76 2.3 SW 28 37 15 20 1006.6 1006.6 0.8
01/01:30am 15.6 11.2 11.6 77 2.2 SW 26 33 14 18 1006.4 1006.4 0.8
01/01:00am 15.6 10.6 11.0 74 2.5 SW 28 39 15 21 1006.3 1006.3 0.8
01/12:30am 15.6 10.8 11.6 77 2.2 SW 28 41 15 22 1006.1 1006.1 0.8
01/12:00am 15.5 10.6 11.3 76 2.3 SW 28 37 15 20 1005.8 1005.8 0.8
 
Date/Time
EDT
Temp
°C
App
Temp
°C
Dew
Point
Rel
Hum
%
Delta-T
°C
Wind Press
QNH
hPa
Press
MSL
hPa
Rain
since 9 am
mm
Dir
 
Spd
km/h
Gust
km/h
Spd
kts
Gust
kts
28/11:30pm 15.3 11.0 11.9 80 1.8 SW 26 37 14 20 1005.8 1005.8 0.8
28/11:00pm 15.8 12.1 12.7 82 1.7 SW 24 33 13 18 1006.0 1006.0 0.8
28/10:30pm 15.6 12.6 12.7 83 1.6 SW 20 26 11 14 1005.7 1005.7 0.8
28/10:00pm 15.6 12.5 13.3 86 1.3 SW 22 32 12 17 1005.4 1005.4 0.8
28/09:38pm 15.6 12.1 14.5 93 0.6 SW 26 35 14 19 1004.9 1004.9 0.8
28/09:30pm 15.6 11.8 14.8 95 0.5 SW 28 41 15 22 1004.7 1004.7 0.8
28/09:00pm 16.1 14.1 15.5 96 0.4 WSW 20 41 11 22 1004.3 1004.3 0.8
28/08:39pm 16.4 13.8 15.8 96 0.4 SW 24 32 13 17 1004.4 1004.4 0.8
28/08:34pm 16.4 13.7 15.6 95 0.5 SW 24 32 13 17 1004.2 1004.2 0.8
28/08:30pm 16.5 14.2 15.7 95 0.5 WSW 22 32 12 17 1004.3 1004.3 0.8
28/08:23pm 17.0 15.8 16.0 94 0.6 WSW 17 26 9 14 1004.1 1004.1 0.6
28/08:00pm 17.5 16.3 16.0 91 0.9 WSW 17 26 9 14 1003.8 1003.7 0.2
28/07:30pm 17.8 16.1 16.3 91 0.9 SW 20 28 11 15 1002.3 1002.2 0.0
28/07:00pm 18.4 18.0 17.1 92 0.8 WSW 15 19 8 10 1001.7 1001.6 0.0
28/06:30pm 18.7 17.3 17.0 90 1.0 W 20 26 11 14 1001.8 1001.7 0.0
28/06:01pm 19.3 18.9 17.1 87 1.3 W 15 19 8 10 1001.5 1001.4 0.0
28/06:00pm 19.3 18.9 17.1 87 1.3 W 15 24 8 13 1001.6 1001.5 0.0
28/05:30pm 20.0 18.6 16.6 81 2.1 WNW 19 26 10 14 1001.8 1001.7 0.0
28/05:00pm 20.9 18.6 16.7 77 2.6 WNW 24 32 13 17 1001.9 1001.8 0.0
28/04:30pm 20.7 18.8 16.7 78 2.4 NW 22 28 12 15 1002.2 1002.1 0.0
28/04:00pm 21.3 17.9 16.7 75 2.8 NW 30 37 16 20 1002.5 1002.4 0.0
28/03:30pm 22.1 18.6 16.6 71 3.4 WNW 30 39 16 21 1002.6 1002.5 0.0
28/03:00pm 22.1 18.6 16.4 70 3.5 WNW 30 37 16 20 1002.7 1002.6 0.0
28/02:30pm 22.6 20.9 17.1 71 3.4 NW 22 30 12 16 1002.8 1002.7 0.0
28/02:00pm 21.7 18.8 16.2 71 3.3 NW 26 35 14 19 1002.9 1002.8 0.0
28/01:30pm 22.3 18.2 15.9 67 3.9 NNW 32 35 17 19 1002.9 1002.8 0.0
28/01:00pm 22.4 18.3 16.0 67 3.9 NNW 32 41 17 22 1002.8 1002.7 0.0
28/12:30pm 21.1 17.7 16.7 76 2.7 NNW 30 39 16 21 1003.1 1003.0 0.0
28/12:00pm 20.4 17.2 17.2 82 2.0 NNW 30 35 16 19 1003.4 1003.3 0.0
28/11:30am 20.4 17.0 16.8 80 2.2 N 30 35 16 19 1004.0 1003.9 0.0
28/11:00am 19.8 17.0 16.3 80 2.1 N 26 37 14 20 1003.8 1003.7 0.0
28/10:30am 19.8 17.6 15.9 78 2.3 NNE 22 32 12 17 1004.2 1004.2 0.0
28/10:00am 19.0 16.6 15.5 80 2.1 NE 22 32 12 17 1004.0 1003.9 0.0
28/09:30am 18.4 15.3 15.5 83 1.7 NE 26 32 14 17 1004.1 1004.1 0.0
28/09:00am 18.0 14.8 15.4 85 1.5 NE 26 35 14 19 1004.2 1004.2 0.0
28/08:30am 17.3 15.1 14.9 86 1.4 NNE 20 28 11 15 1004.8 1004.8 0.0
28/08:00am 16.4 14.5 14.1 86 1.3 NE 17 24 9 13 1004.6 1004.6 0.0
28/07:30am 15.8 13.1 13.5 86 1.3 NE 20 28 11 15 1004.6 1004.6 0.0
28/07:00am 15.5 12.8 13.0 85 1.4 NE 19 28 10 15 1004.5 1004.5 0.0
28/06:30am 15.2 12.3 12.3 83 1.6 NE 19 26 10 14 1004.8 1004.8 0.0
28/06:00am 14.6 11.9 11.7 83 1.6 ENE 17 24 9 13 1004.7 1004.7 0.0
28/05:30am 14.3 11.9 11.5 83 1.5 ENE 15 22 8 12 1005.4 1005.4 0.0
28/05:00am 14.3 11.8 11.1 81 1.7 ENE 15 19 8 10 1005.7 1005.7 0.0
28/04:30am 14.3 11.8 10.9 80 1.8 ENE 15 19 8 10 1006.3 1006.3 0.0
28/04:00am 14.3 11.7 10.7 79 1.9 ENE 15 19 8 10 1006.8 1006.8 0.0
28/03:30am 13.8 11.5 10.4 80 1.8 ENE 13 15 7 8 1007.5 1007.5 0.0
28/03:00am 12.9 10.9 10.1 83 1.4 E 11 13 6 7 1007.9 1007.9 0.0
28/02:30am 12.3 10.6 9.9 85 1.2 ESE 9 11 5 6 1008.5 1008.5 0.0
28/02:00am 11.7 9.9 9.6 87 1.1 ESE 9 9 5 5 1008.8 1008.8 0.0
28/01:30am 11.6 10.1 9.3 86 1.2 ESE 7 9 4 5 1009.4 1009.4 0.0
28/01:00am 11.3 9.9 9.4 88 1.0 ESE 7 9 4 5 1009.7 1009.7 0.0
28/12:30am 11.1 9.6 9.0 87 1.0 ENE 7 9 4 5 1010.1 1010.0 0.0
28/12:00am 11.9 11.7 9.1 83 1.4 CALM 0 0 0 0 1010.9 1010.8 0.0
 
Date/Time
EDT
Temp
°C
App
Temp
°C
Dew
Point
Rel
Hum
%
Delta-T
°C
Wind Press
QNH
hPa
Press
MSL
hPa
Rain
since 9 am
mm
Dir
 
Spd
km/h
Gust
km/h
Spd
kts
Gust
kts
27/11:30pm 12.7 11.4 9.3 80 1.7 ESE 6 7 3 4 1010.7 1010.6 0.0
27/11:00pm 13.4 11.9 9.3 76 2.1 SSE 7 11 4 6 1011.2 1011.1 0.0
27/10:30pm 13.3 11.9 9.4 77 2.0 ESE 7 9 4 5 1011.5 1011.4 0.0
27/10:00pm 13.6 12.1 9.3 75 2.2 SE 7 9 4 5 1011.7 1011.6 0.0
27/09:30pm 13.6 12.1 9.3 75 2.2 SSE 7 9 4 5 1011.9 1011.8 0.0
27/09:00pm 13.8 12.3 9.3 74 2.3 SSE 7 11 4 6 1011.5 1011.4 0.0
27/08:30pm 14.4 13.1 9.2 71 2.7 S 6 9 3 5 1011.5 1011.4 0.0
27/08:00pm 14.8 13.3 9.0 68 3.0 S 7 9 4 5 1011.4 1011.3 0.0
27/07:30pm 15.2 12.5 8.9 66 3.2 SSW 13 17 7 9 1011.1 1011.0 0.0
27/07:00pm 15.9 12.7 8.6 62 3.7 SSW 15 19 8 10 1011.2 1011.1 0.0
27/06:30pm 16.3 12.6 8.0 58 4.2 SW 17 22 9 12 1011.3 1011.2 0.0
27/06:00pm 17.4 14.4 7.7 53 4.9 SSW 13 22 7 12 1011.0 1010.9 0.0
27/05:30pm 17.1 14.6 8.0 55 4.6 SSW 11 17 6 9 1010.8 1010.7 0.0
27/05:00pm 17.1 16.0 8.5 57 4.4 WSW 4 13 2 7 1010.3 1010.2 0.0
27/04:30pm 16.3 14.7 8.0 58 4.2 E 6 11 3 6 1010.2 1010.1 0.0
27/04:00pm 15.4 14.0 7.4 59 4.0 SSE 4 9 2 5 1010.7 1010.6 0.0
27/03:30pm 15.4 13.3 8.4 63 3.5 S 9 13 5 7 1011.3 1011.2 0.0
27/03:00pm 15.6 12.6 7.9 60 3.9 SSW 13 19 7 10 1011.8 1011.7 0.0
27/02:30pm 15.9 12.9 7.7 58 4.1 SW 13 22 7 12 1012.2 1012.1 0.0
27/02:00pm 16.7 13.7 7.6 55 4.6 SW 13 19 7 10 1012.2 1012.1 0.0
27/01:30pm 15.9 12.6 6.6 54 4.6 SSW 13 20 7 11 1011.9 1011.8 0.0
27/01:00pm 16.7 13.6 7.1 53 4.8 SSW 13 20 7 11 1012.0 1011.9 0.0
27/12:30pm 17.7 13.9 7.7 52 5.1 WSW 17 28 9 15 1012.5 1012.4 0.0
27/12:00pm 17.7 15.5 7.7 52 5.1 W 9 17 5 9 1012.4 1012.3 0.0
27/11:30am 17.6 14.3 7.9 53 4.9 SW 15 24 8 13 1012.4 1012.3 0.0
27/11:00am 17.3 14.4 8.2 55 4.6 SSW 13 22 7 12 1012.0 1011.9 0.0
27/10:30am 17.0 13.7 8.2 56 4.5 SSW 15 22 8 12 1012.2 1012.1 0.0
27/10:00am 16.4 13.5 8.1 58 4.2 S 13 19 7 10 1012.1 1012.0 0.0
27/09:30am 15.9 13.4 8.2 60 3.9 SSE 11 17 6 9 1012.2 1012.1 0.0
27/09:00am 15.1 12.2 8.3 64 3.4 SSE 13 17 7 9 1012.2 1012.1 0.0
27/08:30am 14.2 12.2 8.8 70 2.7 SSE 9 13 5 7 1011.8 1011.7 0.0
27/08:00am 11.4 9.7 9.7 89 0.9 SE 9 9 5 5 1011.7 1011.6 0.0
27/07:30am 9.9 9.6 8.5 91 0.7 CALM 0 0 0 0 1011.7 1011.6 0.0
27/07:00am 9.4 8.9 8.0 91 0.7 CALM 0 0 0 0 1011.2 1011.1 0.0
27/06:30am 9.2 6.9 7.5 89 0.8 ESE 9 9 5 5 1010.7 1010.6 0.0
27/06:00am 9.7 7.3 7.1 84 1.2 E 9 11 5 6 1010.6 1010.5 0.0
27/05:30am 11.6 9.5 8.3 80 1.6 SSE 9 15 5 8 1010.6 1010.5 0.0
27/05:00am 12.1 9.8 9.1 82 1.5 S 11 13 6 7 1010.8 1010.7 0.0
27/04:30am 11.9 10.1 9.6 86 1.2 SSE 9 11 5 6 1011.0 1010.9 0.0
27/04:00am 11.1 8.9 9.4 89 0.9 SSE 11 13 6 7 1010.9 1010.8 0.0
27/03:30am 11.8 9.7 9.9 88 1.0 S 11 15 6 8 1010.9 1010.8 0.0
27/03:00am 12.6 10.8 10.7 88 1.0 S 11 15 6 8 1011.1 1011.0 0.0
27/02:30am 12.6 10.8 11.0 90 0.8 SSE 11 13 6 7 1011.0 1010.9 0.0
27/02:00am 13.7 12.1 11.4 86 1.2 S 11 13 6 7 1011.5 1011.4 0.0
27/01:30am 14.3 13.5 12.9 91 0.8 SSW 9 11 5 6 1011.7 1011.6 0.0
27/01:00am 14.6 14.1 12.8 89 1.0 SE 7 9 4 5 1011.8 1011.7 0.0
27/12:30am 14.5 14.1 12.9 90 0.9 S 7 9 4 5 1011.8 1011.7 0.0
27/12:00am 14.4 13.6 13.0 91 0.8 S 9 11 5 6 1011.7 1011.6 0.0
 
Date/Time
EDT
Temp
°C
App
Temp
°C
Dew
Point
Rel
Hum
%
Delta-T
°C
Wind Press
QNH
hPa
Press
MSL
hPa
Rain
since 9 am
mm
Dir
 
Spd
km/h
Gust
km/h
Spd
kts
Gust
kts
26/11:30pm 14.7 14.0 13.2 91 0.8 SSE 9 17 5 9 1011.7 1011.6 0.0
26/11:00pm 15.0 14.4 13.4 90 0.9 SSE 9 11 5 6 1011.8 1011.7 0.0
26/10:30pm 15.3 14.4 13.7 90 0.9 SSE 11 15 6 8 1012.0 1011.9 0.0
26/10:00pm 15.6 14.8 14.0 90 0.9 S 11 15 6 8 1012.0 1011.9 0.0
26/09:46pm 15.7 15.0 14.2 91 0.9 SSE 11 15 6 8 1011.9 1011.8 0.0
26/09:30pm 15.9 15.0 14.8 93 0.6 S 13 17 7 9 1011.7 1011.6 0.0
26/09:25pm 16.1 15.2 14.8 92 0.7 SSE 13 17 7 9 1011.7 1011.6 0.0
26/09:00pm 16.3 15.7 14.5 89 1.0 S 11 15 6 8 1011.4 1011.3 0.0
26/08:30pm 16.4 15.8 14.6 89 1.0 S 11 13 6 7 1011.0 1010.9 0.0
26/08:00pm 16.8 15.6 15.0 89 1.0 SSE 15 19 8 10 1010.4 1010.3 0.0
26/07:30pm 17.6 16.0 15.0 85 1.5 SSW 17 24 9 13 1010.1 1010.0 0.0
26/07:00pm 17.5 16.8 15.3 87 1.3 S 13 19 7 10 1009.8 1009.8 0.0
26/06:59pm 17.4 16.6 15.2 87 1.3 S 13 20 7 11 1009.8 1009.8 0.0
26/06:30pm 17.7 16.2 16.2 91 0.9 SW 19 26 10 14 1009.9 1009.9 0.0
26/06:28pm 17.6 16.0 16.1 91 0.9 SW 19 26 10 14 1009.9 1009.9 0.0
26/06:07pm 18.3 16.7 16.1 87 1.3 W 19 26 10 14 1009.7 1009.7 0.0
26/06:00pm 18.4 16.4 15.6 84 1.7 W 20 28 11 15 1009.7 1009.7 0.0
26/05:42pm 19.2 16.5 15.5 79 2.2 WSW 24 30 13 16 1009.7 1009.7 0.0
26/05:30pm 20.1 18.2 15.7 76 2.6 W 20 28 11 15 1009.7 1009.7 0.0
26/05:00pm 19.2 16.5 15.5 79 2.2 W 24 32 13 17 1009.7 1009.7 0.0
26/04:30pm 19.4 16.5 15.1 76 2.5 W 24 32 13 17 1009.7 1009.7 0.0
26/04:00pm 19.6 16.8 15.3 76 2.5 W 24 32 13 17 1009.7 1009.7 0.0
26/03:58pm 19.3 16.4 15.2 77 2.4 W 24 32 13 17 1009.8 1009.8 0.0
26/03:30pm 19.3 16.9 15.4 78 2.3 WSW 22 32 12 17 1010.1 1010.0 0.0
26/03:26pm 19.3 17.3 15.4 78 2.3 WSW 20 30 11 16 1010.1 1010.0 0.0
26/03:00pm 19.9 16.2 14.9 73 2.9 WSW 28 35 15 19 1010.4 1010.3 0.0
26/02:30pm 19.6 16.6 14.8 74 2.8 WSW 24 35 13 19 1010.4 1010.3 0.0
26/02:00pm 19.4 15.6 14.6 74 2.8 WSW 28 33 15 18 1010.7 1010.6 0.0
26/01:30pm 19.3 15.8 14.6 74 2.7 WSW 26 33 14 18 1010.7 1010.6 0.0
26/01:00pm 19.6 15.6 14.0 70 3.2 WSW 28 35 15 19 1010.8 1010.7 0.0
26/12:30pm 18.9 14.9 14.2 74 2.7 W 28 33 15 18 1010.8 1010.7 0.0
26/12:00pm 18.8 15.0 13.6 72 3.0 WSW 26 37 14 20 1011.0 1010.9 0.0
26/11:30am 19.2 15.3 13.4 69 3.3 SW 26 35 14 19 1011.0 1010.9 0.0
26/11:00am 18.9 15.2 14.0 73 2.8 WSW 26 33 14 18 1011.0 1010.9 0.0
26/10:30am 18.6 14.7 14.5 77 2.4 WSW 28 35 15 19 1010.9 1010.8 0.0
26/10:17am 18.7 15.4 15.0 79 2.2 WSW 26 33 14 18 1010.8 1010.7 0.0

Other Formats:

Comma delimited format used in spreadsheet applications
http://www.bom.gov.au/fwo/IDT60801/IDT60801.94850.axf

JavaScript Object Notation format (JSON) in row-major order
http://www.bom.gov.au/fwo/IDT60801/IDT60801.94850.json